Aeroporto :
LOGIN :

Iscrizione | Disclaimer

   EN    FR    IT 

 










Sommario :    VFR   VFR Marginale   IFR   IFR Intensivo   IFR Molto Intensivo
Visibilità : 
Base nubi : 
>= 8 km
>= 3000ft
5 / 8 km
1000 / 3000 ft
1500m / 5 km
500 / 1000 ft
800 / 1500m
200 / 500 ft
< 800m
< 200 ft
Simboli :   Temporali  Nebbia  Neve Forte  Precipitazioni Forti  Vento > 20 kt
SIGMETs :   Varie  Temporali  Ghiacco  Turbolenza  Onda orograficha  Ceneri Vulcaniche







- Altitudine del aeroporto : 459 ft
- Codice IATA : CER
- Carte del aeroporto


LFRC - Cherbourg / Maupertus

ULTIMO METAR :
  • 201730Z AUTO 28014KT 9999 FEW025 19/12 Q1014 NOSIG

METARs OBSOLETI :
  • 201700Z AUTO 28016KT 9999 BKN019 19/14 Q1014 TEMPO BKN010
  • 201630Z AUTO 26015KT 9999 BKN016 BKN024 BKN033 19/15 Q1014 TEMPO BKN010
  • 201600Z AUTO 27017KT 9999 SCT016 BKN022 BKN033 19/15 Q1014 TEMPO BKN010
  • 201530Z AUTO 26017KT 9999 BKN018 20/15 Q1014 TEMPO BKN010
  • 201500Z AUTO 26017KT 9999 BKN019 BKN024 BKN029 20/15 Q1013 TEMPO BKN010

TAF TAF LFRC
Valido dal 20 a 15 ore il 21 a 00 ore UTC


201400Z 2015/2024 26015G25KT 9999 BKN030
PROB30
TEMPO 2015/2018 BKN010
BECMG 2015/2017 27010KT
Nessun NOTAM noto per questo aeroporto.



MetMap, La meteo Aeronautica in un colpo d'occhio ! - Copyright ORBIFLY Dicembre 2007 - Disclaimer

ORBIFLY MET'MAP TEAM :

Programmazione e sviluppo : Alexandra Zaïnal
Concezione e sviluppo : Baudouin d'Aumeries
Co-Programmazione e sviluppo : Marc-Olivier Méhu
Supporto tecnico e logistico : Manuel Goepfert
Aiuto per la traduzione : Arnaldo La Scala

Contatto : metmap@orbifly.com




FONTI E CREDITI :

   NOAA